Time;durP1;ratioP1;P1;durP2;ratioP2;P2;SDS_P1;SDS_P2;PMS_P1;PMS_P2;Temp;Humidity;BMP_temperature;BMP_pressure;BME280_temperature;BME280_humidity;BME280_pressure;Samples;Min_cycle;Max_cycle;Signal;HPM_P1;HPM_P2
2023/10/15 00:00:12;;;;;;;9.80;5.70;;;;;;;11.08;70.71;99329.19;79485;1295;3012883;-67
2023/10/15 00:02:43;;;;;;;11.90;5.80;;;;;;;10.97;71.31;99331.16;78175;1298;3050834;-62
2023/10/15 00:05:20;;;;;;;8.50;5.50;;;;;;;10.89;71.45;99326.70;79303;1298;3013652;-67
2023/10/15 00:07:49;;;;;;;12.40;6.10;;;;;;;10.90;71.63;99326.01;78106;1299;3052183;-62
2023/10/15 00:10:22;;;;;;;10.60;5.90;;;;;;;10.79;71.82;99318.60;79363;1296;3013040;-67
2023/10/15 00:12:50;;;;;;;12.20;5.80;;;;;;;10.67;72.43;99317.77;78192;1296;3055637;-63
2023/10/15 00:15:23;;;;;;;13.10;5.80;;;;;;;10.65;72.62;99316.19;79545;1295;3011606;-68
2023/10/15 00:17:52;;;;;;;10.20;5.90;;;;;;;10.61;72.73;99319.23;78168;1296;3049249;-65
2023/10/15 00:20:20;;;;;;;10.30;5.50;;;;;;;10.56;73.01;99310.79;79447;1298;3012459;-72
2023/10/15 00:22:47;;;;;;;10.10;6.00;;;;;;;10.51;73.32;99310.41;79371;1298;3011339;-67
2023/10/15 00:25:18;;;;;;;11.50;4.70;;;;;;;10.52;73.50;99309.96;78057;1296;3052227;-70
2023/10/15 00:27:56;;;;;;;10.40;5.00;;;;;;;11.03;72.12;99305.33;79504;1298;3013282;-62
2023/10/15 00:30:32;;;;;;;9.30;5.10;;;;;;;11.52;70.23;99303.86;78091;1300;3049474;-64
2023/10/15 00:33:03;;;;;;;12.90;6.10;;;;;;;11.56;69.95;99302.54;78204;1298;3053595;-62
2023/10/15 00:35:33;;;;;;;11.20;5.30;;;;;;;11.36;70.36;99300.34;79479;1296;3011929;-62
2023/10/15 00:38:07;;;;;;;12.10;5.80;;;;;;;11.17;71.29;99297.78;78256;1299;3053286;-64
2023/10/15 00:40:41;;;;;;;12.20;6.00;;;;;;;10.98;71.89;99295.70;79271;1300;3011534;-66
2023/10/15 00:43:10;;;;;;;16.10;6.10;;;;;;;10.76;72.92;99305.31;78109;1298;3070595;-65
2023/10/15 00:45:46;;;;;;;12.40;5.90;;;;;;;10.62;73.52;99300.60;79370;1298;3013713;-65
2023/10/15 00:49:16;;;;;;;10.90;6.10;;;;;;;10.53;73.97;99299.43;78296;1298;3050205;-64
2023/10/15 00:51:13;;;;;;;12.40;6.40;;;;;;;10.44;74.54;99295.25;78069;1298;3053499;-64
2023/10/15 00:53:50;;;;;;;12.20;6.80;;;;;;;10.30;75.19;99299.42;79349;1298;3013512;-63
2023/10/15 00:56:24;;;;;;;14.40;6.10;;;;;;;10.20;75.69;99300.70;78115;1298;3054884;-63
2023/10/15 00:59:07;;;;;;;13.10;4.90;;;;;;;10.20;76.18;99297.55;79337;1296;3011823;-66
2023/10/15 01:01:38;;;;;;;7.90;4.60;;;;;;;10.80;74.63;99297.66;78224;1300;3051882;-64
2023/10/15 01:04:09;;;;;;;10.20;5.50;;;;;;;11.14;73.17;99294.65;79421;1296;3012907;-62
2023/10/15 01:06:39;;;;;;;14.20;5.80;;;;;;;11.08;73.08;99286.58;78201;1299;3049398;-61
2023/10/15 01:09:09;;;;;;;13.20;5.40;;;;;;;10.98;73.72;99291.09;79273;1298;3013181;-66
2023/10/15 01:11:44;;;;;;;14.30;6.00;;;;;;;10.78;74.57;99286.76;78153;1298;3050111;-64
2023/10/15 01:14:11;;;;;;;12.40;5.40;;;;;;;10.50;75.97;99288.89;79329;1299;3011628;-65
2023/10/15 01:16:40;;;;;;;11.60;5.70;;;;;;;10.29;76.95;99282.83;78328;1297;3053874;-63
2023/10/15 01:21:57;;;;;;;10.10;6.10;;;;;;;10.03;78.77;99277.79;78053;1296;3056402;-65
2023/10/15 01:24:28;;;;;;;7.40;4.90;;;;;;;9.98;79.22;99279.80;78048;1296;3049028;-65
2023/10/15 01:29:36;;;;;;;8.30;5.10;;;;;;;11.12;75.27;99274.07;78247;1298;3050311;-62
2023/10/15 01:32:13;;;;;;;12.80;5.60;;;;;;;11.00;75.17;99268.17;79554;1298;3014404;-64
2023/10/15 01:34:45;;;;;;;10.50;6.10;;;;;;;10.80;75.81;99270.04;78289;1298;3069235;-63
2023/10/15 01:37:24;;;;;;;11.90;6.20;;;;;;;10.56;76.90;99277.16;79386;1300;3011509;-63
2023/10/15 01:40:00;;;;;;;11.20;6.30;;;;;;;10.38;77.38;99271.25;78117;1298;3057163;-64
2023/10/15 01:45:09;;;;;;;12.20;6.30;;;;;;;10.17;78.55;99274.09;79452;1296;3021135;-62
2023/10/15 01:47:45;;;;;;;14.40;4.90;;;;;;;10.05;79.29;99269.40;78124;1302;3053109;-62
2023/10/15 01:50:15;;;;;;;12.80;5.60;;;;;;;10.59;77.74;99268.37;78154;1299;3052452;-62
2023/10/15 01:52:42;;;;;;;10.50;5.40;;;;;;;10.97;76.13;99259.64;79358;1298;3011685;-64
2023/10/15 01:55:12;;;;;;;9.00;5.30;;;;;;;11.06;75.32;99258.84;78981;1298;3011787;-64
2023/10/15 01:57:39;;;;;;;9.90;5.60;;;;;;;10.86;75.66;99257.52;79339;1296;3013822;-64
2023/10/15 02:00:13;;;;;;;11.70;6.20;;;;;;;10.68;76.37;99261.18;79270;1296;3012214;-65
2023/10/15 02:02:42;;;;;;;10.30;5.40;;;;;;;10.63;76.64;99266.23;78205;1298;3051161;-62
2023/10/15 02:05:30;;;;;;;12.00;5.60;;;;;;;10.51;77.13;99259.77;79363;1298;3013548;-68
2023/10/15 02:07:58;;;;;;;10.80;5.90;;;;;;;10.31;78.23;99256.97;78103;1298;3069735;-66
2023/10/15 02:10:29;;;;;;;12.10;5.50;;;;;;;10.28;78.60;99250.89;79550;1296;3011960;-63
2023/10/15 02:13:00;;;;;;;7.50;4.30;;;;;;;10.20;78.92;99249.92;78068;1300;3027593;-63
2023/10/15 02:15:37;;;;;;;9.60;4.90;;;;;;;10.61;78.11;99252.08;79202;1300;3011899;-64
2023/10/15 02:18:08;;;;;;;12.00;5.40;;;;;;;11.17;75.86;99244.84;78232;1298;3053567;-63
2023/10/15 02:20:45;;;;;;;11.30;4.80;;;;;;;11.16;75.39;99240.52;79275;1301;3013737;-68
2023/10/15 02:23:15;;;;;;;8.70;5.00;;;;;;;10.97;75.94;99240.34;78139;1298;3053982;-66
2023/10/15 02:25:56;;;;;;;11.70;5.50;;;;;;;10.74;76.73;99240.11;79502;1298;3012507;-66
2023/10/15 02:28:27;;;;;;;10.20;5.80;;;;;;;10.60;77.56;99238.74;78139;1295;3069184;-65
2023/10/15 02:31:06;;;;;;;11.90;5.70;;;;;;;10.41;78.49;99238.30;79294;1298;3011871;-63
2023/10/15 02:33:34;;;;;;;10.00;6.00;;;;;;;10.32;78.92;99233.27;78077;1298;3055932;-64
2023/10/15 02:36:03;;;;;;;8.30;4.70;;;;;;;10.10;79.96;99230.59;79481;1298;3020501;-65
2023/10/15 02:38:52;;;;;;;12.90;6.10;;;;;;;10.48;79.09;99226.17;78879;1298;3011742;-67
2023/10/15 02:41:21;;;;;;;13.70;5.30;;;;;;;10.87;77.86;99219.10;78066;1298;3050286;-67
2023/10/15 02:43:56;;;;;;;14.70;6.00;;;;;;;10.92;77.25;99217.20;79373;1298;3013371;-67
2023/10/15 02:46:35;;;;;;;13.60;6.20;;;;;;;10.74;77.27;99213.14;78021;1300;3068873;-65
2023/10/15 02:49:07;;;;;;;11.00;6.20;;;;;;;10.45;78.43;99216.55;78267;1298;3052285;-63
2023/10/15 02:51:36;;;;;;;11.70;6.60;;;;;;;10.26;79.07;99211.60;79523;1298;3013205;-65
2023/10/15 02:56:56;;;;;;;18.00;7.30;;;;;;;9.96;80.51;99207.89;78203;1298;3053535;-64
2023/10/15 02:59:23;;;;;;;17.70;5.30;;;;;;;9.83;81.30;99206.90;79301;1298;3011636;-66
2023/10/15 03:01:56;;;;;;;14.70;6.50;;;;;;;10.25;80.05;99201.14;78336;1300;3052494;-63
2023/10/15 03:04:32;;;;;;;11.80;6.00;;;;;;;10.79;77.94;99196.14;79482;1298;3011870;-65
2023/10/15 03:07:18;;;;;;;10.90;6.60;;;;;;;10.82;77.25;99194.72;78134;1301;3069099;-65
2023/10/15 03:09:48;;;;;;;12.90;7.00;;;;;;;10.56;78.36;99189.39;78218;1299;3052371;-65
2023/10/15 03:12:16;;;;;;;15.70;8.40;;;;;;;10.34;79.23;99187.95;79372;1299;3012132;-66
2023/10/15 03:14:45;;;;;;;17.20;8.30;;;;;;;10.21;79.90;99187.76;78087;1300;3026006;-61
2023/10/15 03:17:24;;;;;;;20.70;9.70;;;;;;;10.01;80.74;99188.27;79424;1296;3013426;-63
2023/10/15 03:19:54;;;;;;;22.20;9.80;;;;;;;9.83;82.02;99181.05;78161;1300;3053379;-67
2023/10/15 03:22:24;;;;;;;18.70;7.90;;;;;;;9.68;82.73;99182.83;79419;1298;3011635;-66
2023/10/15 03:24:56;;;;;;;21.00;8.60;;;;;;;10.14;81.28;99175.61;78186;1298;3068833;-64
2023/10/15 03:27:26;;;;;;;17.30;9.10;;;;;;;10.57;79.04;99166.36;79301;1299;3011601;-65
2023/10/15 03:29:57;;;;;;;24.40;8.00;;;;;;;10.63;78.27;99166.52;78192;1300;3056458;-66
2023/10/15 03:32:37;;;;;;;15.10;8.50;;;;;;;10.40;78.70;99162.42;79395;1300;3011853;-68
2023/10/15 03:35:16;;;;;;;14.90;9.10;;;;;;;10.05;79.98;99155.35;78205;1298;3054006;-63
2023/10/15 03:37:47;;;;;;;18.50;8.80;;;;;;;9.90;80.68;99158.01;78026;1300;3049883;-66
2023/10/15 03:40:30;;;;;;;18.10;9.10;;;;;;;9.73;81.35;99155.95;79419;1299;3011662;-62
2023/10/15 03:43:06;;;;;;;16.30;7.40;;;;;;;9.58;82.44;99157.74;78143;1301;3052252;-64
2023/10/15 03:45:50;;;;;;;14.10;8.40;;;;;;;10.06;81.23;99147.40;78214;1296;3069599;-62
2023/10/15 03:48:28;;;;;;;18.20;9.30;;;;;;;10.35;79.94;99147.48;78190;1300;3052067;-65
2023/10/15 03:50:58;;;;;;;17.70;9.20;;;;;;;10.23;79.82;99151.44;78179;1297;3056827;-62
2023/10/15 03:53:28;;;;;;;20.70;10.20;;;;;;;10.07;80.50;99152.92;79414;1296;3012880;-61
2023/10/15 03:56:00;;;;;;;17.70;10.20;;;;;;;9.96;81.23;99155.23;78193;1301;3052592;-64
2023/10/15 03:58:28;;;;;;;26.50;12.20;;;;;;;9.75;82.01;99158.61;79355;1299;3011974;-69
2023/10/15 04:01:11;;;;;;;20.80;11.50;;;;;;;9.52;82.97;99158.63;78134;1298;3052084;-69
2023/10/15 04:03:43;;;;;;;18.10;9.60;;;;;;;9.48;83.39;99156.25;78243;1298;3055215;-65
2023/10/15 04:06:10;;;;;;;19.30;10.30;;;;;;;9.92;81.85;99153.70;79421;1298;3012895;-68
2023/10/15 04:08:37;;;;;;;21.80;11.30;;;;;;;10.23;80.21;99150.19;78304;1299;3027212;-64
2023/10/15 04:11:06;;;;;;;26.10;10.80;;;;;;;10.22;79.84;99147.60;79566;1295;3013172;-66
2023/10/15 04:13:35;;;;;;;23.90;11.10;;;;;;;10.04;80.46;99143.88;79326;1298;3013537;-63
2023/10/15 04:16:02;;;;;;;24.50;11.20;;;;;;;9.78;81.95;99152.13;78203;1299;3051383;-63
2023/10/15 04:18:29;;;;;;;26.00;12.20;;;;;;;9.64;82.90;99149.48;79448;1300;3013159;-63
2023/10/15 04:20:56;;;;;;;22.00;13.00;;;;;;;9.55;83.36;99149.70;79427;1300;3011653;-66
2023/10/15 04:23:30;;;;;;;19.30;11.10;;;;;;;9.42;83.83;99146.48;78302;1298;3026145;-63
2023/10/15 04:26:07;;;;;;;22.80;12.20;;;;;;;9.77;82.73;99141.17;79335;1301;3011590;-65
2023/10/15 04:28:36;;;;;;;19.90;11.10;;;;;;;10.18;80.79;99138.61;78236;1301;3050341;-64
2023/10/15 04:31:21;;;;;;;28.10;13.00;;;;;;;10.09;80.74;99137.06;79373;1300;3013107;-62
2023/10/15 04:33:54;;;;;;;23.20;11.10;;;;;;;9.97;80.96;99141.19;78162;1307;3052014;-61
2023/10/15 04:36:22;;;;;;;23.60;12.40;;;;;;;9.77;81.68;99146.55;79446;1298;3013671;-67
2023/10/15 04:39:08;;;;;;;27.50;13.40;;;;;;;9.64;82.45;99144.39;78169;1295;3068863;-66
2023/10/15 04:41:36;;;;;;;25.60;12.50;;;;;;;9.49;83.26;99142.54;78122;1302;3051986;-65
2023/10/15 04:44:03;;;;;;;18.60;10.20;;;;;;;9.44;83.70;99140.23;79421;1298;3021128;-65
2023/10/15 04:46:40;;;;;;;21.70;11.50;;;;;;;9.85;82.29;99140.35;79455;1296;3011686;-63
2023/10/15 04:49:09;;;;;;;24.40;10.70;;;;;;;10.27;80.06;99136.27;78171;1299;3050076;-64
2023/10/15 04:51:42;;;;;;;25.60;11.00;;;;;;;10.23;79.84;99138.65;79398;1308;3013171;-62
2023/10/15 04:54:10;;;;;;;24.20;11.20;;;;;;;10.12;79.90;99140.21;78102;1300;3068131;-62
2023/10/15 04:56:37;;;;;;;24.10;11.20;;;;;;;9.94;80.70;99145.02;79365;1296;3012910;-64
2023/10/15 04:59:04;;;;;;;26.30;13.20;;;;;;;9.77;81.32;99145.34;79376;1299;3011700;-67
2023/10/15 05:01:35;;;;;;;24.60;10.80;;;;;;;9.63;81.94;99144.46;78147;1298;3053700;-62
2023/10/15 05:04:02;;;;;;;18.30;9.60;;;;;;;9.42;82.98;99141.38;79472;1298;3012701;-65
2023/10/15 05:06:31;;;;;;;21.40;9.90;;;;;;;9.94;81.58;99140.47;78816;1298;3011445;-65
2023/10/15 05:08:57;;;;;;;20.50;9.70;;;;;;;10.43;79.01;99139.66;79293;1297;3013021;-64
2023/10/15 05:11:24;;;;;;;20.80;9.90;;;;;;;10.37;78.54;99141.95;79315;1308;3011902;-65
2023/10/15 05:13:52;;;;;;;19.80;10.60;;;;;;;10.25;78.52;99145.86;78298;1298;3026587;-65
2023/10/15 05:16:19;;;;;;;21.50;9.80;;;;;;;9.99;79.51;99150.14;79479;1295;3013698;-62
2023/10/15 05:18:47;;;;;;;21.00;10.60;;;;;;;9.87;80.04;99151.02;79388;1302;3011357;-65
2023/10/15 05:21:15;;;;;;;20.90;10.00;;;;;;;9.88;80.20;99153.08;78117;1308;3051314;-61
2023/10/15 05:23:41;;;;;;;22.90;9.90;;;;;;;9.77;80.57;99151.48;79459;1298;3020893;-61
2023/10/15 05:26:08;;;;;;;18.90;8.00;;;;;;;9.75;80.57;99142.85;79328;1298;3011855;-67
2023/10/15 05:28:36;;;;;;;18.20;8.00;;;;;;;10.25;78.96;99137.77;78170;1301;3027257;-63
2023/10/15 05:31:03;;;;;;;14.70;7.60;;;;;;;10.73;77.07;99140.32;79442;1296;3012954;-66
2023/10/15 05:33:29;;;;;;;14.80;8.40;;;;;;;10.89;76.17;99139.21;79330;1302;3012049;-62
2023/10/15 05:35:57;;;;;;;14.60;7.80;;;;;;;10.74;76.34;99138.13;78156;1308;3026051;-65
2023/10/15 05:38:26;;;;;;;17.00;8.80;;;;;;;10.64;76.82;99136.89;79343;1310;3013731;-68
2023/10/15 05:40:57;;;;;;;20.10;8.50;;;;;;;10.50;77.48;99136.38;79322;1296;3011193;-65
2023/10/15 05:43:25;;;;;;;26.30;8.80;;;;;;;10.32;78.31;99137.34;78227;1298;3056915;-63
2023/10/15 05:45:51;;;;;;;16.00;8.10;;;;;;;10.26;78.81;99134.56;79390;1295;3018383;-64
2023/10/15 05:48:18;;;;;;;13.00;6.20;;;;;;;10.29;79.13;99129.83;79454;1296;3011518;-68
2023/10/15 05:50:50;;;;;;;12.30;6.60;;;;;;;10.77;78.06;99124.45;78222;1298;3026650;-67
2023/10/15 05:53:17;;;;;;;17.70;7.20;;;;;;;11.27;76.16;99120.89;79402;1299;3013161;-67
2023/10/15 05:55:45;;;;;;;12.50;6.70;;;;;;;11.41;75.71;99119.05;78147;1298;3028693;-64
2023/10/15 05:58:12;;;;;;;12.10;6.70;;;;;;;11.18;76.77;99117.27;79471;1296;3012995;-62
2023/10/15 06:00:41;;;;;;;17.50;7.30;;;;;;;11.06;77.44;99113.41;77032;1296;3272038;-64
2023/10/15 06:03:09;;;;;;;19.10;8.10;;;;;;;11.05;77.81;99110.00;78201;1298;3053537;-67
2023/10/15 06:05:36;;;;;;;16.90;8.10;;;;;;;10.91;78.57;99112.64;79549;1307;3013268;-64
2023/10/15 06:08:04;;;;;;;19.50;8.30;;;;;;;10.82;79.61;99117.44;79372;1298;3011686;-65
2023/10/15 06:10:32;;;;;;;14.40;6.70;;;;;;;10.87;80.11;99113.45;78200;1299;3069064;-65
2023/10/15 06:12:59;;;;;;;14.50;6.20;;;;;;;11.31;78.76;99112.56;79411;1294;3014556;-66
2023/10/15 06:15:26;;;;;;;17.30;5.50;;;;;;;11.80;77.00;99112.48;79458;1295;3011899;-65
2023/10/15 06:17:54;;;;;;;17.30;6.20;;;;;;;11.81;76.81;99114.02;78193;1299;3054107;-65
2023/10/15 06:20:20;;;;;;;15.10;5.70;;;;;;;11.67;77.79;99110.05;79241;1298;3013263;-63
2023/10/15 06:22:48;;;;;;;14.80;7.30;;;;;;;11.64;77.90;99104.50;79553;1298;3011541;-66
2023/10/15 06:25:17;;;;;;;11.80;6.30;;;;;;;11.64;78.39;99105.21;78236;1298;3068151;-65
2023/10/15 06:27:44;;;;;;;15.60;7.40;;;;;;;11.64;78.70;99101.65;79506;1295;3012874;-65
2023/10/15 06:30:17;;;;;;;13.10;5.00;;;;;;;11.66;79.38;99103.65;79604;1295;3011931;-63
2023/10/15 06:32:49;;;;;;;11.00;5.60;;;;;;;12.18;78.58;99103.79;78143;1298;3054477;-66
2023/10/15 06:35:18;;;;;;;10.70;5.00;;;;;;;12.52;77.19;99103.64;79370;1298;3011298;-66
2023/10/15 06:37:49;;;;;;;11.10;5.60;;;;;;;12.50;77.22;99100.27;78229;1300;3052193;-69
2023/10/15 06:40:16;;;;;;;13.20;6.00;;;;;;;12.55;77.30;99095.31;79555;1296;3011360;-64
2023/10/15 06:42:45;;;;;;;9.60;5.80;;;;;;;12.47;77.59;99095.00;78249;1304;3025102;-62
2023/10/15 06:45:11;;;;;;;13.70;6.40;;;;;;;12.47;78.32;99095.93;79471;1296;3013964;-68
2023/10/15 06:47:38;;;;;;;12.30;6.10;;;;;;;12.50;78.73;99096.36;79381;1294;3011571;-66
2023/10/15 06:50:07;;;;;;;10.00;4.90;;;;;;;12.50;79.63;99092.67;78294;1296;3051026;-64
2023/10/15 06:52:39;;;;;;;9.20;4.20;;;;;;;13.03;78.65;99094.30;79524;1298;3012936;-61
2023/10/15 06:55:07;;;;;;;9.40;5.00;;;;;;;13.58;76.71;99094.86;78291;1298;3052445;-65
2023/10/15 06:57:38;;;;;;;9.80;4.70;;;;;;;13.83;75.98;99085.32;79432;1298;3013459;-63
2023/10/15 07:00:07;;;;;;;10.80;4.90;;;;;;;13.73;76.13;99081.14;78452;1298;3056580;-64
2023/10/15 07:02:34;;;;;;;8.40;4.40;;;;;;;13.54;77.60;99086.20;79447;1299;3013875;-63
2023/10/15 07:05:02;;;;;;;8.50;4.90;;;;;;;13.44;78.14;99085.19;79339;1295;3011849;-65
2023/10/15 07:07:31;;;;;;;7.60;4.60;;;;;;;13.35;78.72;99084.32;78129;1298;3052841;-69
2023/10/15 07:10:00;;;;;;;8.20;4.20;;;;;;;13.25;79.11;99084.36;79466;1298;3013666;-62
2023/10/15 07:12:29;;;;;;;7.40;4.40;;;;;;;13.77;77.47;99081.23;78116;1298;3027580;-66
2023/10/15 07:14:55;;;;;;;10.60;4.20;;;;;;;14.22;75.71;99078.99;79343;1296;3014215;-63
2023/10/15 07:17:22;;;;;;;11.40;4.60;;;;;;;14.39;74.68;99073.73;79364;1295;3012918;-66
2023/10/15 07:19:50;;;;;;;12.50;4.20;;;;;;;14.26;75.12;99070.05;78111;1298;3053318;-68
2023/10/15 07:22:16;;;;;;;16.30;4.80;;;;;;;14.22;75.43;99065.09;79468;1298;3013036;-66
2023/10/15 07:24:43;;;;;;;6.60;3.80;;;;;;;14.19;75.00;99064.14;79482;1299;3011533;-63
2023/10/15 07:27:10;;;;;;;8.00;5.00;;;;;;;14.18;75.07;99061.15;78247;1295;3026488;-65
2023/10/15 07:29:39;;;;;;;10.60;4.90;;;;;;;14.16;75.28;99061.55;79407;1298;3011405;-65
2023/10/15 07:32:07;;;;;;;7.50;3.90;;;;;;;14.19;75.35;99057.05;79500;1295;3013751;-66
2023/10/15 07:34:35;;;;;;;15.50;7.30;;;;;;;14.77;73.98;99058.95;78044;1296;3053896;-71
2023/10/15 07:37:01;;;;;;;9.20;4.10;;;;;;;15.51;70.83;99059.34;79487;1300;3013056;-67
2023/10/15 07:39:28;;;;;;;7.50;3.90;;;;;;;15.62;69.64;99053.32;79424;1298;3013301;-63
2023/10/15 07:41:56;;;;;;;7.00;4.20;;;;;;;15.51;69.67;99055.06;78187;1297;3028565;-63
2023/10/15 07:44:22;;;;;;;6.50;4.00;;;;;;;15.49;69.15;99056.71;79401;1298;3018336;-65
2023/10/15 07:46:52;;;;;;;8.40;3.90;;;;;;;15.33;69.35;99056.19;79277;1295;3011802;-67
2023/10/15 07:49:20;;;;;;;5.40;3.50;;;;;;;15.21;69.71;99058.09;78165;1298;3052693;-70
2023/10/15 07:51:47;;;;;;;14.10;4.70;;;;;;;15.13;69.94;99054.14;79437;1298;3012649;-64
2023/10/15 07:54:14;;;;;;;9.20;4.20;;;;;;;15.14;69.48;99047.73;79481;1295;3013310;-68
2023/10/15 07:56:42;;;;;;;12.90;4.20;;;;;;;15.11;69.88;99046.39;78300;1297;3068682;-64
2023/10/15 07:59:09;;;;;;;7.90;4.40;;;;;;;15.16;69.27;99048.08;79534;1298;3018437;-67
2023/10/15 08:01:36;;;;;;;9.10;4.00;;;;;;;15.17;68.41;99046.60;79272;1298;3011911;-67
2023/10/15 08:04:06;;;;;;;8.50;3.40;;;;;;;15.23;68.45;99043.77;78105;1298;3053374;-68
2023/10/15 08:06:35;;;;;;;7.30;3.50;;;;;;;15.35;68.23;99037.33;79495;1298;3012728;-65
2023/10/15 08:09:03;;;;;;;12.90;4.30;;;;;;;15.41;68.38;99036.52;78218;1300;3053280;-65
2023/10/15 08:11:31;;;;;;;7.30;4.20;;;;;;;15.49;68.46;99031.85;79473;1298;3013735;-66
2023/10/15 08:13:59;;;;;;;8.40;3.80;;;;;;;15.55;67.99;99030.23;79355;1296;3012865;-68
2023/10/15 08:16:28;;;;;;;9.10;4.00;;;;;;;15.50;67.87;99026.98;78220;1298;3050218;-65
2023/10/15 08:18:55;;;;;;;10.40;4.10;;;;;;;15.56;68.10;99029.27;79396;1301;3013818;-66
2023/10/15 08:21:22;;;;;;;8.40;4.20;;;;;;;15.65;67.57;99030.92;79466;1298;3011622;-64
2023/10/15 08:23:50;;;;;;;6.50;4.00;;;;;;;15.67;67.16;99027.26;78292;1298;3052300;-65
2023/10/15 08:26:16;;;;;;;9.80;5.00;;;;;;;15.78;66.81;99026.29;79395;1298;3013366;-66
2023/10/15 08:28:43;;;;;;;10.10;4.50;;;;;;;15.94;66.71;99020.41;79437;1296;3011626;-64
2023/10/15 08:31:10;;;;;;;10.50;4.80;;;;;;;16.03;66.04;99023.20;78284;1300;3026212;-68
2023/10/15 08:33:37;;;;;;;10.00;5.10;;;;;;;15.98;65.30;99016.06;79573;1297;3012852;-69
2023/10/15 08:36:04;;;;;;;12.50;6.00;;;;;;;16.01;65.50;99005.50;79389;1300;3011946;-67
2023/10/15 08:38:32;;;;;;;16.30;4.70;;;;;;;16.09;65.74;99008.45;78083;1298;3027165;-67
2023/10/15 08:40:58;;;;;;;12.90;3.90;;;;;;;16.18;65.44;99005.77;79381;1297;3013617;-70
2023/10/15 08:43:34;;;;;;;9.20;4.00;;;;;;;16.06;64.77;99004.55;79135;1300;3011650;-65
2023/10/15 08:46:02;;;;;;;7.60;3.70;;;;;;;16.15;64.56;99003.91;78136;1298;3049758;-69
2023/10/15 08:48:30;;;;;;;7.90;3.30;;;;;;;16.20;64.44;98995.85;79552;1299;3015638;-68
2023/10/15 08:50:57;;;;;;;10.10;3.90;;;;;;;16.11;63.99;98993.86;79305;1296;3011784;-65
2023/10/15 08:53:26;;;;;;;8.20;3.80;;;;;;;16.16;62.85;98990.93;78280;1300;3052906;-67
2023/10/15 08:55:57;;;;;;;8.50;3.70;;;;;;;16.19;63.29;98985.52;79342;1295;3014252;-73
2023/10/15 08:58:25;;;;;;;8.90;3.70;;;;;;;16.37;63.79;98981.42;78229;1300;3057175;-67
2023/10/15 09:00:52;;;;;;;5.40;3.60;;;;;;;16.56;63.68;98982.51;79610;1295;3014529;-63
2023/10/15 09:03:18;;;;;;;9.40;3.80;;;;;;;16.73;63.54;98981.59;79563;1295;3011457;-64
2023/10/15 09:05:52;;;;;;;6.80;4.00;;;;;;;16.78;61.79;98979.15;78436;1298;3025826;-65
2023/10/15 09:08:20;;;;;;;10.60;4.30;;;;;;;16.70;61.92;98975.89;79708;1297;3013677;-65
2023/10/15 09:10:52;;;;;;;9.30;3.80;;;;;;;16.74;61.53;98967.89;78294;1297;3069111;-69
2023/10/15 09:13:21;;;;;;;8.50;4.00;;;;;;;16.75;60.85;98961.21;79403;1295;3011599;-68
2023/10/15 09:15:52;;;;;;;8.40;3.90;;;;;;;16.83;61.49;98959.11;78112;1299;3056536;-66
2023/10/15 09:18:18;;;;;;;8.10;3.80;;;;;;;16.96;61.34;98955.73;79479;1296;3011394;-69
2023/10/15 09:20:51;;;;;;;9.90;4.20;;;;;;;17.09;60.80;98955.77;78883;1300;3011456;-68
2023/10/15 09:23:24;;;;;;;7.70;4.30;;;;;;;17.05;60.93;98946.42;79708;1296;3011913;-65
2023/10/15 09:25:55;;;;;;;8.70;4.10;;;;;;;17.10;61.08;98939.73;78226;1300;3055101;-65
2023/10/15 09:28:22;;;;;;;7.40;3.90;;;;;;;17.24;60.89;98936.79;79461;1297;3013411;-67
2023/10/15 09:30:51;;;;;;;8.10;4.10;;;;;;;17.37;60.37;98931.52;78253;1295;3028086;-67
2023/10/15 09:33:27;;;;;;;6.50;4.00;;;;;;;17.45;60.38;98928.73;79623;1297;3013863;-64
2023/10/15 09:35:55;;;;;;;9.50;4.30;;;;;;;17.51;60.05;98916.15;78149;1300;3050366;-62
2023/10/15 09:38:22;;;;;;;7.70;3.20;;;;;;;17.55;59.77;98907.99;79265;1297;3013383;-65
2023/10/15 09:40:48;;;;;;;5.90;3.40;;;;;;;17.67;59.83;98905.94;79604;1294;3011495;-63
2023/10/15 09:43:17;;;;;;;8.10;4.00;;;;;;;17.74;60.13;98904.12;78284;1298;3053537;-65
2023/10/15 09:45:43;;;;;;;7.50;3.70;;;;;;;17.81;59.18;98896.23;79541;1298;3020838;-63
2023/10/15 09:48:10;;;;;;;10.00;3.90;;;;;;;17.86;58.97;98895.67;79682;1295;3011460;-64
2023/10/15 09:50:38;;;;;;;7.60;4.10;;;;;;;17.80;58.96;98892.54;78167;1299;3025520;-63
2023/10/15 09:53:11;;;;;;;11.00;4.20;;;;;;;17.84;59.57;98889.48;79304;1296;3012920;-68
2023/10/15 09:55:40;;;;;;;6.90;3.70;;;;;;;18.15;58.56;98885.21;78120;1299;3053206;-70
2023/10/15 09:58:09;;;;;;;8.60;3.90;;;;;;;18.23;58.74;98881.74;79457;1298;3014854;-69
2023/10/15 10:03:26;;;;;;;8.90;4.10;;;;;;;18.17;58.97;98870.08;78161;1298;3050912;-64
2023/10/15 10:06:08;;;;;;;13.70;3.60;;;;;;;18.29;58.24;98870.67;79464;1295;3011575;-64
2023/10/15 10:09:01;;;;;;;8.50;3.80;;;;;;;18.42;57.84;98867.36;78214;1296;3049471;-66
2023/10/15 10:11:54;;;;;;;8.00;3.20;;;;;;;18.51;58.03;98862.27;78141;1298;3052598;-67
2023/10/15 10:14:29;;;;;;;11.00;3.70;;;;;;;18.54;57.63;98861.94;78272;1295;3050686;-63
2023/10/15 10:17:04;;;;;;;9.10;3.80;;;;;;;18.58;57.47;98866.05;79038;1297;3011551;-66
2023/10/15 10:19:31;;;;;;;8.10;3.60;;;;;;;18.61;57.37;98857.80;79526;1297;3011625;-65
2023/10/15 10:21:59;;;;;;;6.40;3.70;;;;;;;18.72;56.98;98853.81;78182;1300;3052280;-60
2023/10/15 10:24:40;;;;;;;10.60;3.70;;;;;;;18.73;56.80;98851.91;79403;1299;3013293;-65
2023/10/15 10:27:15;;;;;;;8.40;4.00;;;;;;;18.73;56.96;98850.11;78217;1298;3055773;-66
2023/10/15 10:29:51;;;;;;;8.10;3.30;;;;;;;18.85;57.04;98845.98;78839;1296;3011997;-63
2023/10/15 10:32:21;;;;;;;7.20;3.20;;;;;;;18.92;57.17;98843.81;78898;1296;3011639;-64
2023/10/15 10:35:17;;;;;;;7.80;5.20;;;;;;;18.96;57.20;98844.39;79401;1298;3015526;-63
2023/10/15 10:38:18;;;;;;;10.00;3.50;;;;;;;19.07;56.49;98836.84;78216;1298;3050324;-63
2023/10/15 10:40:49;;;;;;;10.40;4.50;;;;;;;19.11;56.79;98834.41;78027;1298;3054258;-62
2023/10/15 10:43:20;;;;;;;5.60;3.20;;;;;;;19.10;56.59;98829.69;79478;1298;3012948;-64
2023/10/15 10:46:00;;;;;;;8.40;4.60;;;;;;;19.14;56.87;98827.45;78248;1300;3067682;-61
2023/10/15 10:48:29;;;;;;;5.60;3.50;;;;;;;19.12;56.29;98827.09;78332;1296;3052668;-64
2023/10/15 10:51:08;;;;;;;7.50;3.50;;;;;;;19.07;56.40;98826.27;79357;1295;3012962;-66
2023/10/15 10:53:37;;;;;;;9.30;3.80;;;;;;;19.09;56.72;98821.40;78247;1296;3055241;-63
2023/10/15 10:56:04;;;;;;;11.50;3.50;;;;;;;19.14;56.68;98825.88;79687;1296;3011881;-63
2023/10/15 10:58:30;;;;;;;8.40;3.70;;;;;;;19.16;56.60;98817.89;79403;1298;3011834;-66
2023/10/15 11:00:58;;;;;;;6.60;3.40;;;;;;;19.32;56.35;98817.07;78363;1298;3068515;-66
2023/10/15 11:03:25;;;;;;;6.00;3.30;;;;;;;19.35;55.41;98813.59;79299;1295;3013535;-70
2023/10/15 11:05:54;;;;;;;10.40;3.90;;;;;;;19.46;55.58;98815.55;79331;1298;3011890;-63
2023/10/15 11:08:23;;;;;;;7.90;3.30;;;;;;;19.40;55.62;98814.58;78207;1295;3053180;-64
2023/10/15 11:10:50;;;;;;;5.00;3.10;;;;;;;19.53;55.24;98804.96;79492;1295;3014603;-67
2023/10/15 11:13:16;;;;;;;7.00;3.80;;;;;;;19.62;55.48;98800.63;79371;1298;3011517;-67
2023/10/15 11:15:45;;;;;;;9.00;3.90;;;;;;;19.61;55.20;98798.87;78294;1295;3068325;-68
2023/10/15 11:18:12;;;;;;;7.60;3.80;;;;;;;19.62;55.21;98796.02;79405;1295;3014708;-62
2023/10/15 11:20:39;;;;;;;9.20;3.80;;;;;;;19.65;54.80;98790.73;79445;1295;3011910;-68
2023/10/15 11:23:07;;;;;;;9.90;3.60;;;;;;;19.73;54.29;98785.82;78171;1298;3053656;-68
2023/10/15 11:25:36;;;;;;;6.90;3.70;;;;;;;19.69;53.91;98786.04;79443;1295;3013145;-67
2023/10/15 11:28:06;;;;;;;10.50;4.10;;;;;;;19.72;54.01;98784.27;79394;1298;3011906;-64
2023/10/15 11:30:34;;;;;;;5.60;3.20;;;;;;;19.64;54.09;98781.64;78259;1298;3069935;-67
2023/10/15 11:33:00;;;;;;;5.10;2.80;;;;;;;19.58;52.46;98776.76;79358;1296;3013701;-63
2023/10/15 11:35:31;;;;;;;8.30;3.50;;;;;;;19.70;52.23;98776.91;79384;1298;3011883;-62
2023/10/15 11:38:07;;;;;;;7.80;3.60;;;;;;;19.80;51.95;98778.48;78207;1298;3053819;-64
2023/10/15 11:40:38;;;;;;;7.20;3.00;;;;;;;19.93;52.34;98774.73;78273;1298;3049720;-61